sensor_id;sensor_type;location;lat;lon;timestamp;temperature;humidity
20598;DHT22;10457;48.770;11.446;2023-03-12T00:04:39;-0.90;84.10
20598;DHT22;10457;48.770;11.446;2023-03-12T00:10:03;-1.00;82.30
20598;DHT22;10457;48.770;11.446;2023-03-12T00:15:25;-1.00;84.70
20598;DHT22;10457;48.770;11.446;2023-03-12T00:21:02;-1.00;85.20
20598;DHT22;10457;48.770;11.446;2023-03-12T00:26:31;-1.00;85.70
20598;DHT22;10457;48.770;11.446;2023-03-12T00:31:53;-1.00;88.60
20598;DHT22;10457;48.770;11.446;2023-03-12T00:37:14;-1.00;90.10
20598;DHT22;10457;48.770;11.446;2023-03-12T00:42:37;-1.00;89.40
20598;DHT22;10457;48.770;11.446;2023-03-12T00:47:58;-1.10;88.00
20598;DHT22;10457;48.770;11.446;2023-03-12T00:53:20;-1.10;88.80
20598;DHT22;10457;48.770;11.446;2023-03-12T00:58:43;-1.10;89.80
20598;DHT22;10457;48.770;11.446;2023-03-12T01:04:05;-1.20;89.80
20598;DHT22;10457;48.770;11.446;2023-03-12T01:09:27;-1.20;90.70
20598;DHT22;10457;48.770;11.446;2023-03-12T01:14:50;-1.30;90.90
20598;DHT22;10457;48.770;11.446;2023-03-12T01:20:11;-1.30;93.40
20598;DHT22;10457;48.770;11.446;2023-03-12T01:25:33;-1.20;92.90
20598;DHT22;10457;48.770;11.446;2023-03-12T01:30:56;-1.30;92.00
20598;DHT22;10457;48.770;11.446;2023-03-12T01:36:20;-1.20;92.10
20598;DHT22;10457;48.770;11.446;2023-03-12T01:41:43;-1.30;93.30
20598;DHT22;10457;48.770;11.446;2023-03-12T01:47:06;-1.30;95.90
20598;DHT22;10457;48.770;11.446;2023-03-12T01:52:30;-1.40;95.80
20598;DHT22;10457;48.770;11.446;2023-03-12T01:57:56;-1.40;96.10
20598;DHT22;10457;48.770;11.446;2023-03-12T02:03:20;-1.40;94.70
20598;DHT22;10457;48.770;11.446;2023-03-12T02:08:44;-1.50;94.70
20598;DHT22;10457;48.770;11.446;2023-03-12T02:14:07;-1.50;94.70
20598;DHT22;10457;48.770;11.446;2023-03-12T02:19:36;-1.50;94.50
20598;DHT22;10457;48.770;11.446;2023-03-12T02:25:14;-1.60;92.30
20598;DHT22;10457;48.770;11.446;2023-03-12T02:30:41;-1.60;93.10
20598;DHT22;10457;48.770;11.446;2023-03-12T02:36:06;-1.60;95.30
20598;DHT22;10457;48.770;11.446;2023-03-12T02:41:32;-1.70;95.10
20598;DHT22;10457;48.770;11.446;2023-03-12T02:46:58;-1.70;95.90
20598;DHT22;10457;48.770;11.446;2023-03-12T02:52:20;-1.80;94.90
20598;DHT22;10457;48.770;11.446;2023-03-12T02:57:44;-1.80;95.50
20598;DHT22;10457;48.770;11.446;2023-03-12T03:03:07;-1.90;96.20
20598;DHT22;10457;48.770;11.446;2023-03-12T03:08:29;-1.80;97.10
20598;DHT22;10457;48.770;11.446;2023-03-12T03:13:53;-1.70;97.40
20598;DHT22;10457;48.770;11.446;2023-03-12T03:19:15;-1.70;96.80
20598;DHT22;10457;48.770;11.446;2023-03-12T03:24:37;-1.60;96.90
20598;DHT22;10457;48.770;11.446;2023-03-12T03:30:00;-1.50;96.60
20598;DHT22;10457;48.770;11.446;2023-03-12T03:35:23;-1.30;95.80
20598;DHT22;10457;48.770;11.446;2023-03-12T03:40:45;-1.20;94.80
20598;DHT22;10457;48.770;11.446;2023-03-12T03:46:09;-1.10;94.00
20598;DHT22;10457;48.770;11.446;2023-03-12T03:51:35;-1.20;94.90
20598;DHT22;10457;48.770;11.446;2023-03-12T03:57:01;-1.20;95.20
20598;DHT22;10457;48.770;11.446;2023-03-12T04:02:24;-1.20;94.60
20598;DHT22;10457;48.770;11.446;2023-03-12T04:07:46;-1.30;96.60
20598;DHT22;10457;48.770;11.446;2023-03-12T04:13:09;-1.30;96.60
20598;DHT22;10457;48.770;11.446;2023-03-12T04:18:32;-1.20;97.20
20598;DHT22;10457;48.770;11.446;2023-03-12T04:23:55;-1.20;96.30
20598;DHT22;10457;48.770;11.446;2023-03-12T04:29:21;-1.20;95.20
20598;DHT22;10457;48.770;11.446;2023-03-12T04:34:44;-1.10;95.40
20598;DHT22;10457;48.770;11.446;2023-03-12T04:40:08;-1.10;95.00
20598;DHT22;10457;48.770;11.446;2023-03-12T04:45:31;-1.10;94.90
20598;DHT22;10457;48.770;11.446;2023-03-12T04:50:54;-1.20;96.40
20598;DHT22;10457;48.770;11.446;2023-03-12T04:56:16;-1.10;96.10
20598;DHT22;10457;48.770;11.446;2023-03-12T05:01:39;-1.20;95.60
20598;DHT22;10457;48.770;11.446;2023-03-12T05:07:08;-1.10;95.80
20598;DHT22;10457;48.770;11.446;2023-03-12T05:12:30;-1.10;96.00
20598;DHT22;10457;48.770;11.446;2023-03-12T05:17:52;-1.20;96.50
20598;DHT22;10457;48.770;11.446;2023-03-12T05:23:15;-1.20;96.80
20598;DHT22;10457;48.770;11.446;2023-03-12T05:28:36;-1.20;97.00
20598;DHT22;10457;48.770;11.446;2023-03-12T05:33:58;-1.20;96.90
20598;DHT22;10457;48.770;11.446;2023-03-12T05:39:22;-1.20;97.60
20598;DHT22;10457;48.770;11.446;2023-03-12T05:44:44;-1.20;97.90
20598;DHT22;10457;48.770;11.446;2023-03-12T05:50:10;-1.00;99.30
20598;DHT22;10457;48.770;11.446;2023-03-12T05:55:35;-0.90;97.60
20598;DHT22;10457;48.770;11.446;2023-03-12T06:00:57;-0.90;96.80
20598;DHT22;10457;48.770;11.446;2023-03-12T06:06:19;-0.80;97.60
20598;DHT22;10457;48.770;11.446;2023-03-12T06:11:42;-0.60;97.70
20598;DHT22;10457;48.770;11.446;2023-03-12T06:17:04;-0.50;96.10
20598;DHT22;10457;48.770;11.446;2023-03-12T06:22:25;-0.30;93.80
20598;DHT22;10457;48.770;11.446;2023-03-12T06:27:49;-0.30;93.30
20598;DHT22;10457;48.770;11.446;2023-03-12T06:33:10;-0.30;92.10
20598;DHT22;10457;48.770;11.446;2023-03-12T06:38:32;-0.20;91.50
20598;DHT22;10457;48.770;11.446;2023-03-12T06:43:55;-0.30;92.10
20598;DHT22;10457;48.770;11.446;2023-03-12T06:49:17;-0.20;90.80
20598;DHT22;10457;48.770;11.446;2023-03-12T06:54:42;-0.20;90.50
20598;DHT22;10457;48.770;11.446;2023-03-12T07:00:09;-0.10;90.60
20598;DHT22;10457;48.770;11.446;2023-03-12T07:05:32;0.00;90.50
20598;DHT22;10457;48.770;11.446;2023-03-12T07:10:53;-0.10;90.00
20598;DHT22;10457;48.770;11.446;2023-03-12T07:16:16;0.00;87.50
20598;DHT22;10457;48.770;11.446;2023-03-12T07:21:38;0.10;86.10
20598;DHT22;10457;48.770;11.446;2023-03-12T07:26:59;0.10;86.20
20598;DHT22;10457;48.770;11.446;2023-03-12T07:32:22;0.40;88.20
20598;DHT22;10457;48.770;11.446;2023-03-12T07:37:43;0.50;88.20
20598;DHT22;10457;48.770;11.446;2023-03-12T07:43:05;0.70;86.40
20598;DHT22;10457;48.770;11.446;2023-03-12T07:48:34;0.70;84.50
20598;DHT22;10457;48.770;11.446;2023-03-12T07:53:55;0.80;84.10
20598;DHT22;10457;48.770;11.446;2023-03-12T07:59:17;0.90;83.60
20598;DHT22;10457;48.770;11.446;2023-03-12T08:04:40;0.80;83.50
20598;DHT22;10457;48.770;11.446;2023-03-12T08:10:04;0.70;83.60
20598;DHT22;10457;48.770;11.446;2023-03-12T08:15:29;0.70;86.40
20598;DHT22;10457;48.770;11.446;2023-03-12T08:20:52;0.70;91.30
20598;DHT22;10457;48.770;11.446;2023-03-12T08:26:14;0.90;91.00
20598;DHT22;10457;48.770;11.446;2023-03-12T08:31:36;0.80;91.40
20598;DHT22;10457;48.770;11.446;2023-03-12T08:36:59;0.90;94.60
20598;DHT22;10457;48.770;11.446;2023-03-12T08:42:21;1.00;95.80
20598;DHT22;10457;48.770;11.446;2023-03-12T08:47:44;1.50;96.30
20598;DHT22;10457;48.770;11.446;2023-03-12T08:53:07;1.90;90.50
20598;DHT22;10457;48.770;11.446;2023-03-12T08:58:29;1.80;86.30
20598;DHT22;10457;48.770;11.446;2023-03-12T09:03:52;1.90;86.90
20598;DHT22;10457;48.770;11.446;2023-03-12T09:09:18;1.80;87.50
20598;DHT22;10457;48.770;11.446;2023-03-12T09:14:39;2.00;89.00
20598;DHT22;10457;48.770;11.446;2023-03-12T09:20:01;2.00;87.80
20598;DHT22;10457;48.770;11.446;2023-03-12T09:25:27;2.20;87.10
20598;DHT22;10457;48.770;11.446;2023-03-12T09:30:48;2.30;88.60
20598;DHT22;10457;48.770;11.446;2023-03-12T09:36:10;2.60;86.70
20598;DHT22;10457;48.770;11.446;2023-03-12T09:41:35;2.90;85.50
20598;DHT22;10457;48.770;11.446;2023-03-12T09:47:00;3.50;81.90
20598;DHT22;10457;48.770;11.446;2023-03-12T09:52:26;3.70;79.60
20598;DHT22;10457;48.770;11.446;2023-03-12T09:57:53;4.50;77.90
20598;DHT22;10457;48.770;11.446;2023-03-12T10:03:25;5.10;75.30
20598;DHT22;10457;48.770;11.446;2023-03-12T10:09:09;5.00;73.10
20598;DHT22;10457;48.770;11.446;2023-03-12T10:14:53;4.60;73.80
20598;DHT22;10457;48.770;11.446;2023-03-12T10:20:35;4.20;75.50
20598;DHT22;10457;48.770;11.446;2023-03-12T10:26:09;4.30;77.20
20598;DHT22;10457;48.770;11.446;2023-03-12T10:31:40;4.30;77.50
20598;DHT22;10457;48.770;11.446;2023-03-12T10:37:14;4.30;78.00
20598;DHT22;10457;48.770;11.446;2023-03-12T10:42:38;4.20;79.10
20598;DHT22;10457;48.770;11.446;2023-03-12T10:48:02;4.20;80.60
20598;DHT22;10457;48.770;11.446;2023-03-12T10:53:27;4.10;81.90
20598;DHT22;10457;48.770;11.446;2023-03-12T10:58:52;4.20;81.30
20598;DHT22;10457;48.770;11.446;2023-03-12T11:04:17;4.30;81.60
20598;DHT22;10457;48.770;11.446;2023-03-12T11:09:39;4.40;81.60
20598;DHT22;10457;48.770;11.446;2023-03-12T11:15:18;4.40;81.50
20598;DHT22;10457;48.770;11.446;2023-03-12T11:20:42;4.20;82.70
20598;DHT22;10457;48.770;11.446;2023-03-12T11:26:09;4.30;85.10
20598;DHT22;10457;48.770;11.446;2023-03-12T11:31:36;4.30;84.80
20598;DHT22;10457;48.770;11.446;2023-03-12T11:37:05;4.40;87.90
20598;DHT22;10457;48.770;11.446;2023-03-12T11:42:41;4.50;89.30
20598;DHT22;10457;48.770;11.446;2023-03-12T11:48:16;4.60;90.10
20598;DHT22;10457;48.770;11.446;2023-03-12T12:00:10;4.90;91.30
20598;DHT22;10457;48.770;11.446;2023-03-12T12:05:40;5.00;93.20
20598;DHT22;10457;48.770;11.446;2023-03-12T12:11:14;5.20;92.00
20598;DHT22;10457;48.770;11.446;2023-03-12T12:16:50;5.20;93.60
20598;DHT22;10457;48.770;11.446;2023-03-12T12:22:37;5.20;95.70
20598;DHT22;10457;48.770;11.446;2023-03-12T12:40:24;5.50;99.90
20598;DHT22;10457;48.770;11.446;2023-03-12T12:45:51;5.50;99.90
20598;DHT22;10457;48.770;11.446;2023-03-12T12:51:14;5.50;99.90
20598;DHT22;10457;48.770;11.446;2023-03-12T12:56:40;5.90;99.90
20598;DHT22;10457;48.770;11.446;2023-03-12T13:02:15;6.20;98.60
20598;DHT22;10457;48.770;11.446;2023-03-12T13:07:39;6.40;99.60
20598;DHT22;10457;48.770;11.446;2023-03-12T13:13:08;6.30;99.90
20598;DHT22;10457;48.770;11.446;2023-03-12T13:18:32;6.50;99.90
20598;DHT22;10457;48.770;11.446;2023-03-12T13:24:03;6.60;98.10
20598;DHT22;10457;48.770;11.446;2023-03-12T13:29:38;6.50;99.60
20598;DHT22;10457;48.770;11.446;2023-03-12T13:35:29;6.80;99.90
20598;DHT22;10457;48.770;11.446;2023-03-12T13:40:54;7.20;95.80
20598;DHT22;10457;48.770;11.446;2023-03-12T13:46:40;7.60;93.60
20598;DHT22;10457;48.770;11.446;2023-03-12T13:52:18;8.20;91.50
20598;DHT22;10457;48.770;11.446;2023-03-12T13:57:44;8.10;88.10
20598;DHT22;10457;48.770;11.446;2023-03-12T14:03:12;8.00;90.00
20598;DHT22;10457;48.770;11.446;2023-03-12T14:09:00;8.10;90.20
20598;DHT22;10457;48.770;11.446;2023-03-12T14:14:59;8.10;90.10
20598;DHT22;10457;48.770;11.446;2023-03-12T14:20:24;8.20;88.80
20598;DHT22;10457;48.770;11.446;2023-03-12T14:25:47;8.30;91.10
20598;DHT22;10457;48.770;11.446;2023-03-12T14:31:12;8.50;87.90
20598;DHT22;10457;48.770;11.446;2023-03-12T14:36:37;8.50;88.70
20598;DHT22;10457;48.770;11.446;2023-03-12T14:42:06;8.80;86.30
20598;DHT22;10457;48.770;11.446;2023-03-12T14:47:29;9.00;86.70
20598;DHT22;10457;48.770;11.446;2023-03-12T14:52:51;9.00;85.50
20598;DHT22;10457;48.770;11.446;2023-03-12T14:58:17;8.90;87.90
20598;DHT22;10457;48.770;11.446;2023-03-12T15:03:41;8.70;90.90
20598;DHT22;10457;48.770;11.446;2023-03-12T15:09:06;8.80;92.50
20598;DHT22;10457;48.770;11.446;2023-03-12T15:14:32;9.00;93.30
20598;DHT22;10457;48.770;11.446;2023-03-12T15:19:55;9.40;90.20
20598;DHT22;10457;48.770;11.446;2023-03-12T15:25:22;9.30;91.30
20598;DHT22;10457;48.770;11.446;2023-03-12T15:30:46;9.10;91.80
20598;DHT22;10457;48.770;11.446;2023-03-12T15:36:26;9.10;92.40
20598;DHT22;10457;48.770;11.446;2023-03-12T15:41:51;9.10;93.20
20598;DHT22;10457;48.770;11.446;2023-03-12T15:47:16;8.90;94.20
20598;DHT22;10457;48.770;11.446;2023-03-12T15:52:39;8.70;96.60
20598;DHT22;10457;48.770;11.446;2023-03-12T15:58:01;8.60;98.50
20598;DHT22;10457;48.770;11.446;2023-03-12T16:03:24;8.50;99.90
20598;DHT22;10457;48.770;11.446;2023-03-12T16:08:47;8.50;99.90
20598;DHT22;10457;48.770;11.446;2023-03-12T16:14:15;8.80;99.90
20598;DHT22;10457;48.770;11.446;2023-03-12T16:19:39;8.40;99.90
20598;DHT22;10457;48.770;11.446;2023-03-12T16:25:01;8.20;99.90
20598;DHT22;10457;48.770;11.446;2023-03-12T16:30:25;8.10;99.90
20598;DHT22;10457;48.770;11.446;2023-03-12T16:35:50;8.00;99.90
20598;DHT22;10457;48.770;11.446;2023-03-12T16:41:13;7.90;99.90
20598;DHT22;10457;48.770;11.446;2023-03-12T16:46:37;7.80;99.90
20598;DHT22;10457;48.770;11.446;2023-03-12T16:51:59;7.70;99.90
20598;DHT22;10457;48.770;11.446;2023-03-12T16:57:26;7.60;99.90
20598;DHT22;10457;48.770;11.446;2023-03-12T17:02:50;7.40;99.90
20598;DHT22;10457;48.770;11.446;2023-03-12T17:08:17;7.40;99.90
20598;DHT22;10457;48.770;11.446;2023-03-12T17:13:39;7.30;99.90
20598;DHT22;10457;48.770;11.446;2023-03-12T17:19:00;7.30;99.90
20598;DHT22;10457;48.770;11.446;2023-03-12T17:24:23;7.50;99.90
20598;DHT22;10457;48.770;11.446;2023-03-12T17:29:47;7.50;99.90
20598;DHT22;10457;48.770;11.446;2023-03-12T17:35:08;7.30;99.90
20598;DHT22;10457;48.770;11.446;2023-03-12T17:40:31;7.50;99.90
20598;DHT22;10457;48.770;11.446;2023-03-12T17:45:54;7.30;99.90
20598;DHT22;10457;48.770;11.446;2023-03-12T17:51:15;6.90;99.90
20598;DHT22;10457;48.770;11.446;2023-03-12T17:56:38;6.90;99.90
20598;DHT22;10457;48.770;11.446;2023-03-12T18:01:59;6.70;99.90
20598;DHT22;10457;48.770;11.446;2023-03-12T18:07:21;6.70;99.90
20598;DHT22;10457;48.770;11.446;2023-03-12T18:12:44;6.70;99.90
20598;DHT22;10457;48.770;11.446;2023-03-12T18:18:05;6.70;99.90
20598;DHT22;10457;48.770;11.446;2023-03-12T18:23:27;6.60;99.90
20598;DHT22;10457;48.770;11.446;2023-03-12T18:28:49;6.50;99.90
20598;DHT22;10457;48.770;11.446;2023-03-12T18:34:11;6.50;99.90
20598;DHT22;10457;48.770;11.446;2023-03-12T18:39:32;6.70;99.90
20598;DHT22;10457;48.770;11.446;2023-03-12T18:44:55;6.80;99.90
20598;DHT22;10457;48.770;11.446;2023-03-12T18:50:17;6.80;99.90
20598;DHT22;10457;48.770;11.446;2023-03-12T18:55:39;6.60;99.90
20598;DHT22;10457;48.770;11.446;2023-03-12T19:01:02;6.40;99.90
20598;DHT22;10457;48.770;11.446;2023-03-12T19:06:24;6.40;99.90
20598;DHT22;10457;48.770;11.446;2023-03-12T19:11:45;6.30;99.90
20598;DHT22;10457;48.770;11.446;2023-03-12T19:17:08;6.20;99.90
20598;DHT22;10457;48.770;11.446;2023-03-12T19:22:29;6.10;99.90
20598;DHT22;10457;48.770;11.446;2023-03-12T19:27:51;6.10;99.90
20598;DHT22;10457;48.770;11.446;2023-03-12T19:33:14;6.10;99.90
20598;DHT22;10457;48.770;11.446;2023-03-12T19:38:35;6.30;99.90
20598;DHT22;10457;48.770;11.446;2023-03-12T19:43:57;6.20;99.90
20598;DHT22;10457;48.770;11.446;2023-03-12T19:49:20;6.20;99.90
20598;DHT22;10457;48.770;11.446;2023-03-12T19:54:41;6.50;99.90
20598;DHT22;10457;48.770;11.446;2023-03-12T20:00:04;6.90;99.90
20598;DHT22;10457;48.770;11.446;2023-03-12T20:05:30;6.90;99.90
20598;DHT22;10457;48.770;11.446;2023-03-12T20:10:51;6.90;99.90
20598;DHT22;10457;48.770;11.446;2023-03-12T20:16:13;7.20;99.90
20598;DHT22;10457;48.770;11.446;2023-03-12T20:21:36;7.30;99.90
20598;DHT22;10457;48.770;11.446;2023-03-12T20:26:58;7.40;99.90
20598;DHT22;10457;48.770;11.446;2023-03-12T20:32:19;7.40;99.90
20598;DHT22;10457;48.770;11.446;2023-03-12T20:37:42;7.40;99.90
20598;DHT22;10457;48.770;11.446;2023-03-12T20:43:04;7.40;99.90
20598;DHT22;10457;48.770;11.446;2023-03-12T20:48:25;7.30;99.90
20598;DHT22;10457;48.770;11.446;2023-03-12T20:53:48;7.30;99.90
20598;DHT22;10457;48.770;11.446;2023-03-12T20:59:10;7.50;99.90
20598;DHT22;10457;48.770;11.446;2023-03-12T21:04:31;7.50;99.90
20598;DHT22;10457;48.770;11.446;2023-03-12T21:09:54;7.40;99.90
20598;DHT22;10457;48.770;11.446;2023-03-12T21:15:15;7.60;99.90
20598;DHT22;10457;48.770;11.446;2023-03-12T21:20:37;7.60;99.90
20598;DHT22;10457;48.770;11.446;2023-03-12T21:26:12;7.80;99.90
20598;DHT22;10457;48.770;11.446;2023-03-12T21:31:34;8.00;99.90
20598;DHT22;10457;48.770;11.446;2023-03-12T21:36:56;8.00;99.90
20598;DHT22;10457;48.770;11.446;2023-03-12T21:42:18;7.90;99.90
20598;DHT22;10457;48.770;11.446;2023-03-12T21:47:39;8.10;99.90
20598;DHT22;10457;48.770;11.446;2023-03-12T21:53:01;8.10;99.90
20598;DHT22;10457;48.770;11.446;2023-03-12T21:58:24;8.10;99.90
20598;DHT22;10457;48.770;11.446;2023-03-12T22:03:46;8.10;99.90
20598;DHT22;10457;48.770;11.446;2023-03-12T22:09:07;8.10;99.90
20598;DHT22;10457;48.770;11.446;2023-03-12T22:14:30;8.10;99.90
20598;DHT22;10457;48.770;11.446;2023-03-12T22:19:52;8.00;99.90
20598;DHT22;10457;48.770;11.446;2023-03-12T22:25:13;8.00;99.90
20598;DHT22;10457;48.770;11.446;2023-03-12T22:30:36;8.10;99.90
20598;DHT22;10457;48.770;11.446;2023-03-12T22:35:58;8.10;99.90
20598;DHT22;10457;48.770;11.446;2023-03-12T22:41:21;7.90;99.90
20598;DHT22;10457;48.770;11.446;2023-03-12T22:46:46;8.00;99.90
20598;DHT22;10457;48.770;11.446;2023-03-12T22:52:10;8.00;99.90
20598;DHT22;10457;48.770;11.446;2023-03-12T22:57:32;7.90;99.90
20598;DHT22;10457;48.770;11.446;2023-03-12T23:02:55;7.90;99.90
20598;DHT22;10457;48.770;11.446;2023-03-12T23:08:17;7.90;99.90
20598;DHT22;10457;48.770;11.446;2023-03-12T23:13:40;7.90;99.90
20598;DHT22;10457;48.770;11.446;2023-03-12T23:19:04;7.80;99.90
20598;DHT22;10457;48.770;11.446;2023-03-12T23:24:25;7.70;99.90
20598;DHT22;10457;48.770;11.446;2023-03-12T23:29:49;7.70;99.90
20598;DHT22;10457;48.770;11.446;2023-03-12T23:35:12;7.60;99.90
20598;DHT22;10457;48.770;11.446;2023-03-12T23:40:34;7.60;99.90
20598;DHT22;10457;48.770;11.446;2023-03-12T23:45:56;7.50;99.90
20598;DHT22;10457;48.770;11.446;2023-03-12T23:51:21;7.50;99.90
20598;DHT22;10457;48.770;11.446;2023-03-12T23:56:43;7.60;99.90
